Terminal Aerodrome Forecast
Issued by NWS

Home | Current Version | Previous Version | Graphics & Text | Print | Product List | Glossary On
Versions: 1 2 3 4 5 6 7 8 9 10 11 12 13 14 15 16
000
FTUS43 KICT 041139
TAFCNU
TAF
KCNU 041139Z 0412/0512 19009KT P6SM OVC150
     FM041700 19017G22KT P6SM SCT060 SCT150
     FM050100 16010KT P6SM SCT150
     FM050800 16010KT P6SM BKN050=

USA.gov is the U.S. government's official web portal to all federal, state and local government web resources and services.